Flight Track Log - Related Links

Times and Time Zones

All times are in EDT time to prevent confusion due to time zone crossing. See the N449ND flight status page for this flight to view local times or setup timezone preferences in your user account.

Time Position Orientation Groundspeed Altitude Reporting Facility
EDT Latitude Longitude Course Direction KTS MPH feet Rate Location/Type
Wed 05:05:58 PM 27.4972 -80.3592 328° Northwest 69 79 500  Level Miami Center
Wed 05:07:00 PM 27.4972 -80.3347 90° East 77 89 1,000 585 Climbing Miami Center
Wed 05:08:01 PM 27.4983 -80.3103 87° East 77 89 1,700 585 Climbing Miami Center
Wed 05:09:03 PM 27.4981 -80.2831 91° East 80 92 2,200 484 Climbing Miami Center
Wed 05:10:00 PM 27.4975 -80.3726 152° Southeast  Level Estimated
Wed 05:10:05 PM 27.4989 -80.2539 88° East 88 101 2,700  Level Miami Center
Wed 05:11:00 PM 27.4975 -80.3726 328° Northwest  Level Estimated
Wed 05:11:06 PM 27.5117 -80.2364 51° Northeast 92 106 3,100  Level Miami Center
Wed 05:12:08 PM 27.5356 -80.2369 359° North 92 106 3,600 484 Climbing Miami Center
Wed 05:13:10 PM 27.5472 -80.2533 309° West 81 93 4,100 242 Climbing Miami Center
Wed 05:14:12 PM 27.5442 -80.2839 264° West 89 102 4,100 -48 Level Miami Center
Wed 05:15:14 PM 27.5481 -80.3144 278° West 93 107 4,000 -49 Descending Miami Center
Wed 05:16:15 PM 27.5564 -80.3458 287° West 96 110 4,000  Level Miami Center
Wed 05:17:17 PM 27.5631 -80.3744 285° West 96 110 4,000  Level Miami Center
Wed 05:18:19 PM 27.5717 -80.4039 288° West 96 110 4,000  Level Miami Center
Wed 05:19:20 PM 27.5683 -80.4344 263° West 101 116 4,000  Level Miami Center
Wed 05:20:22 PM 27.5628 -80.4667 259° West 101 116 4,000  Level Miami Center
Wed 05:21:24 PM 27.5622 -80.4972 269° West 99 114 4,000 48 Level Miami Center
Wed 05:22:26 PM 27.5656 -80.5261 277° West 99 114 4,100 49 Climbing Miami Center
Wed 05:23:27 PM 27.5786 -80.5561 296° West 101 116 4,100  Level Miami Center
Wed 05:24:29 PM 27.5967 -80.5819 308° West 101 116 4,100 -48 Level Miami Center
Wed 05:25:31 PM 27.6211 -80.6033 322° Northwest 104 120 4,000 -49 Descending Miami Center
Wed 05:26:32 PM 27.6497 -80.6144 341° North 104 120 4,000 -49 Level Miami Center
Wed 05:27:34 PM 27.6764 -80.6214 347° North 103 119 3,900 -339 Descending Miami Center
Wed 05:28:36 PM 27.7067 -80.6150 11° North 109 125 3,300 -780 Descending Miami Center
Wed 05:29:37 PM 27.7061 -80.5844 91° East 103 119 2,300 -878 Descending Miami Center
Wed 05:30:39 PM 27.6992 -80.5550 105° East 95 109 1,500 -532 Descending Miami Center
Wed 05:31:41 PM 27.6931 -80.5297 105° East 89 102 1,200 -98 Descending Miami Center
Wed 05:32:42 PM 27.6831 -80.5042 114° Southeast 87 100 1,300 -49 Climbing Miami Center
Wed 05:33:44 PM 27.6769 -80.4806 106° East 79 91 1,100 -390 Descending Miami Center
Wed 05:34:45 PM 27.6667 -80.4558 115° Southeast 80 92 500 -341 Descending Miami Center
Wed 05:35:47 PM 27.6597 -80.4342 110° East 80 92 400 194 Descending Miami Center
Wed 05:36:49 PM 27.6647 -80.4131 75° East 82 94 900 585 Climbing Miami Center
Wed 05:37:50 PM 27.6889 -80.4094 North 83 96 1,600 585 Climbing Miami Center
Wed 05:38:52 PM 27.7139 -80.4047 North 84 97 2,100 484 Climbing Miami Center
Wed 05:39:54 PM 27.7367 -80.3983 14° North 87 100 2,600 439 Climbing Miami Center
Wed 05:40:55 PM 27.7617 -80.3903 16° North 87 100 3,000 244 Climbing Miami Center
Wed 05:41:57 PM 27.7881 -80.3817 16° North 90 104 3,100 48 Climbing Miami Center
Wed 05:42:59 PM 27.8119 -80.3858 351° North 95 109 3,100 195 Level Miami Center
Wed 05:44:00 PM 27.8094 -80.4167 265° West 98 113 3,500 341 Climbing Miami Center
Wed 05:45:02 PM 27.8042 -80.4447 258° West 94 108 3,800 290 Climbing Miami Center
Wed 05:46:04 PM 27.7822 -80.4578 208° Southwest 98 113 4,100 146 Climbing Miami Center
Wed 05:47:05 PM 27.7536 -80.4628 189° South 100 115 4,100  Level Miami Center
Wed 05:48:07 PM 27.7242 -80.4689 190° South 102 117 4,100 -48 Level Miami Center
Wed 05:49:09 PM 27.6994 -80.4828 206° Southwest 100 115 4,000  Descending Miami Center
Wed 05:50:10 PM 27.6711 -80.4919 196° South 101 116 4,100 49 Climbing Miami Center
Wed 05:51:12 PM 27.6478 -80.4736 145° Southeast 100 115 4,100  Level Miami Center
Wed 05:52:14 PM 27.6261 -80.4497 136° Southeast 101 116 4,100  Level Miami Center
Wed 05:53:15 PM 27.6456 -80.4522 354° North 102 117 4,100  Level Miami Center
Wed 05:54:17 PM 27.6608 -80.4753 307° West 100 115 4,100  Level Miami Center
Wed 05:55:19 PM 27.6853 -80.4933 327° Northwest 100 115 4,100 -49 Level Miami Center
Wed 05:56:20 PM 27.7003 -80.4753 47° Northeast 106 122 4,000 -49 Descending Miami Center
Wed 05:57:22 PM 27.6739 -80.4586 151° Southeast 104 120 4,000  Level Miami Center
Wed 05:58:24 PM 27.6483 -80.4483 160° South 103 119 4,000  Level Miami Center
Wed 05:59:26 PM 27.6561 -80.4728 290° West 103 119 4,000  Level Miami Center
Wed 06:00:27 PM 27.6797 -80.4914 325° Northwest 102 117 4,000  Level Miami Center
Wed 06:01:29 PM 27.6944 -80.4792 36° Northeast 107 123 4,000  Level Miami Center
Wed 06:02:31 PM 27.6700 -80.4639 151° Southeast 97 112 4,000  Level Miami Center
Wed 06:03:32 PM 27.6575 -80.4781 225° Southwest 97 112 4,000  Level Miami Center
Wed 06:04:34 PM 27.6842 -80.4925 334° Northwest 101 116 4,000  Level Miami Center

Login

Don't have an account? Register now (free) for customized features, flight alerts, and more!